Time,TemperatureF,DewpointF,PressureIn,WindDirection,WindDirectionDegrees,WindSpeedMPH,WindSpeedGustMPH,Humidity,HourlyPrecipIn,Conditions,Clouds,dailyrainin,SoftwareType,DateUTC
2013-02-03 00:10:00,45.7,44.4,29.90,SSW,202,0.0,-999.0,95,-99.99,,,0.00,Acu-Link.com,2013-02-03 05:10:00,
2013-02-03 00:25:00,45.0,43.7,29.89,ESE,112,0.0,-999.0,95,-99.99,,,0.00,Acu-Link.com,2013-02-03 05:25:00,
2013-02-03 00:41:00,45.1,42.6,29.89,SSW,202,0.0,-999.0,91,-99.99,,,0.00,Acu-Link.com,2013-02-03 05:41:00,
2013-02-03 00:56:00,45.1,42.9,29.89,SW,225,0.0,-999.0,92,-99.99,,,0.00,Acu-Link.com,2013-02-03 05:56:00,
2013-02-03 01:11:00,46.0,43.2,29.89,SSW,202,0.0,-999.0,90,-99.99,,,0.00,Acu-Link.com,2013-02-03 06:11:00,
2013-02-03 01:27:00,45.9,43.4,29.88,South,180,0.0,-999.0,91,-99.99,,,0.00,Acu-Link.com,2013-02-03 06:27:00,
2013-02-03 01:42:00,46.2,42.5,29.87,West,270,1.1,-999.0,87,-99.99,,,0.00,Acu-Link.com,2013-02-03 06:42:00,
2013-02-03 01:57:00,46.4,41.5,29.86,WSW,247,1.1,-999.0,83,-99.99,,,0.00,Acu-Link.com,2013-02-03 06:57:00,
2013-02-03 02:13:00,47.3,41.4,29.86,WNW,292,0.0,-999.0,80,-99.99,,,0.00,Acu-Link.com,2013-02-03 07:13:00,
2013-02-03 02:28:00,47.5,42.0,29.86,SW,225,0.0,-999.0,81,-99.99,,,0.00,Acu-Link.com,2013-02-03 07:28:00,
2013-02-03 02:43:00,46.4,40.9,29.85,SSE,157,0.0,-999.0,81,-99.99,,,0.00,Acu-Link.com,2013-02-03 07:43:00,
2013-02-03 02:58:00,45.1,39.9,29.85,SW,225,0.0,-999.0,82,-99.99,,,0.00,Acu-Link.com,2013-02-03 07:58:00,
2013-02-03 03:14:00,43.9,39.4,29.85,SSW,202,0.0,-999.0,84,-99.99,,,0.00,Acu-Link.com,2013-02-03 08:14:00,
2013-02-03 03:29:00,43.3,38.5,29.84,SSE,157,1.1,-999.0,83,-99.99,,,0.00,Acu-Link.com,2013-02-03 08:29:00,
2013-02-03 03:44:00,43.7,37.9,29.84,WNW,292,0.0,-999.0,80,-99.99,,,0.00,Acu-Link.com,2013-02-03 08:44:00,
2013-02-03 04:00:00,44.8,37.4,29.84,West,270,6.3,-999.0,75,-99.99,,,0.00,Acu-Link.com,2013-02-03 09:00:00,
2013-02-03 04:15:00,45.9,36.3,29.84,West,270,3.2,-999.0,69,-99.99,,,0.00,Acu-Link.com,2013-02-03 09:15:00,
2013-02-03 04:30:00,45.1,35.5,29.83,WSW,247,1.7,-999.0,69,-99.99,,,0.00,Acu-Link.com,2013-02-03 09:30:00,
2013-02-03 04:46:00,44.6,35.4,29.84,West,270,3.2,-999.0,70,-99.99,,,0.00,Acu-Link.com,2013-02-03 09:46:00,
2013-02-03 05:01:00,44.4,35.6,29.84,West,270,3.7,-999.0,71,-99.99,,,0.00,Acu-Link.com,2013-02-03 10:01:00,
2013-02-03 05:16:00,44.4,34.9,29.85,SW,225,3.7,-999.0,69,-99.99,,,0.00,Acu-Link.com,2013-02-03 10:16:00,
2013-02-03 05:31:00,44.6,34.0,29.86,West,270,6.8,-999.0,66,-99.99,,,0.00,Acu-Link.com,2013-02-03 10:31:00,
2013-02-03 05:46:00,44.8,34.9,29.86,West,270,9.4,-999.0,68,-99.99,,,0.00,Acu-Link.com,2013-02-03 10:46:00,
2013-02-03 06:01:00,45.0,36.5,29.86,West,270,6.8,-999.0,72,-99.99,,,0.00,Acu-Link.com,2013-02-03 11:01:00,
2013-02-03 06:17:00,44.6,37.2,29.86,West,270,6.8,-999.0,75,-99.99,,,0.00,Acu-Link.com,2013-02-03 11:17:00,
2013-02-03 06:32:00,44.1,37.7,29.87,West,270,8.3,-999.0,78,-99.99,,,0.00,Acu-Link.com,2013-02-03 11:32:00,
2013-02-03 06:47:00,43.9,37.8,29.88,West,270,6.8,-999.0,79,-99.99,,,0.00,Acu-Link.com,2013-02-03 11:47:00,
2013-02-03 07:02:00,43.7,38.3,29.88,West,270,6.3,-999.0,81,-99.99,,,0.00,Acu-Link.com,2013-02-03 12:02:00,
2013-02-03 07:18:00,43.7,37.9,29.89,West,270,8.3,-999.0,80,-99.99,,,0.00,Acu-Link.com,2013-02-03 12:18:00,
2013-02-03 07:33:00,43.5,37.7,29.88,SW,225,7.8,-999.0,80,-99.99,,,0.00,Acu-Link.com,2013-02-03 12:33:00,
2013-02-03 07:48:00,44.2,37.1,29.89,West,270,10.9,-999.0,76,-99.99,,,0.00,Acu-Link.com,2013-02-03 12:48:00,
2013-02-03 08:04:00,44.8,37.0,29.90,West,270,7.3,-999.0,74,-99.99,,,0.00,Acu-Link.com,2013-02-03 13:04:00,
2013-02-03 08:19:00,45.7,37.2,29.90,West,270,7.3,-999.0,72,-99.99,,,0.00,Acu-Link.com,2013-02-03 13:19:00,
2013-02-03 08:34:00,46.4,37.2,29.91,West,270,12.5,-999.0,70,-99.99,,,0.00,Acu-Link.com,2013-02-03 13:34:00,
2013-02-03 08:49:00,46.9,36.9,29.91,West,270,10.4,-999.0,68,-99.99,,,0.00,Acu-Link.com,2013-02-03 13:49:00,
2013-02-03 09:05:00,48.0,37.2,29.91,West,270,10.4,-999.0,66,-99.99,,,0.00,Acu-Link.com,2013-02-03 14:05:00,
2013-02-03 09:20:00,48.6,36.6,29.91,West,270,7.3,-999.0,63,-99.99,,,0.00,Acu-Link.com,2013-02-03 14:20:00,
2013-02-03 09:35:00,49.8,36.5,29.90,West,270,8.3,-999.0,60,-99.99,,,0.00,Acu-Link.com,2013-02-03 14:35:00,
2013-02-03 09:50:00,50.4,36.2,29.90,West,270,8.9,-999.0,58,-99.99,,,0.00,Acu-Link.com,2013-02-03 14:50:00,
2013-02-03 10:06:00,50.9,35.3,29.90,WSW,247,13.0,-999.0,55,-99.99,,,0.00,Acu-Link.com,2013-02-03 15:06:00,
2013-02-03 10:21:00,51.4,34.8,29.90,SW,225,10.4,-999.0,53,-99.99,,,0.00,Acu-Link.com,2013-02-03 15:21:00,
2013-02-03 10:36:00,52.5,36.3,29.89,SSW,202,9.9,-999.0,54,-99.99,,,0.00,Acu-Link.com,2013-02-03 15:36:00,
2013-02-03 10:52:00,53.1,36.4,29.89,West,270,10.4,-999.0,53,-99.99,,,0.00,Acu-Link.com,2013-02-03 15:52:00,
2013-02-03 11:07:00,53.4,35.7,29.88,West,270,9.4,-999.0,51,-99.99,,,0.00,Acu-Link.com,2013-02-03 16:07:00,
2013-02-03 11:22:00,55.0,35.7,29.87,WNW,292,10.4,-999.0,48,-99.99,,,0.00,Acu-Link.com,2013-02-03 16:22:00,
2013-02-03 11:37:00,55.4,34.4,29.87,West,270,9.4,-999.0,45,-99.99,,,0.00,Acu-Link.com,2013-02-03 16:37:00,
2013-02-03 11:52:00,55.6,33.5,29.87,West,270,17.1,-999.0,43,-99.99,,,0.00,Acu-Link.com,2013-02-03 16:52:00,
2013-02-03 12:08:00,56.3,34.1,29.85,West,270,14.0,-999.0,43,-99.99,,,0.00,Acu-Link.com,2013-02-03 17:08:00,
2013-02-03 12:23:00,57.0,34.1,29.84,WSW,247,8.9,-999.0,42,-99.99,,,0.00,Acu-Link.com,2013-02-03 17:23:00,
2013-02-03 12:39:00,57.4,35.1,29.82,West,270,9.9,-999.0,43,-99.99,,,0.00,Acu-Link.com,2013-02-03 17:39:00,
2013-02-03 12:54:00,57.6,34.1,29.81,SSW,202,10.9,-999.0,41,-99.99,,,0.00,Acu-Link.com,2013-02-03 17:54:00,
2013-02-03 13:09:00,58.8,33.9,29.80,West,270,10.9,-999.0,39,-99.99,,,0.00,Acu-Link.com,2013-02-03 18:09:00,
2013-02-03 13:24:00,59.0,34.1,29.80,West,270,11.9,-999.0,39,-99.99,,,0.00,Acu-Link.com,2013-02-03 18:24:00,
2013-02-03 13:39:00,59.2,33.6,29.78,WSW,247,11.9,-999.0,38,-99.99,,,0.00,Acu-Link.com,2013-02-03 18:39:00,
2013-02-03 13:55:00,59.4,33.8,29.77,West,270,6.3,-999.0,38,-99.99,,,0.00,Acu-Link.com,2013-02-03 18:55:00,
2013-02-03 14:10:00,61.0,33.2,29.76,West,270,10.9,-999.0,35,-99.99,,,0.00,Acu-Link.com,2013-02-03 19:10:00,
2013-02-03 14:25:00,61.2,33.3,29.76,West,270,12.5,-999.0,35,-99.99,,,0.00,Acu-Link.com,2013-02-03 19:25:00,
2013-02-03 14:41:00,61.0,34.5,29.76,West,270,14.0,-999.0,37,-99.99,,,0.00,Acu-Link.com,2013-02-03 19:41:00,
2013-02-03 14:56:00,60.3,35.2,29.75,West,270,5.3,-999.0,39,-99.99,,,0.00,Acu-Link.com,2013-02-03 19:56:00,
2013-02-03 15:11:00,60.8,35.0,29.75,West,270,7.8,-999.0,38,-99.99,,,0.00,Acu-Link.com,2013-02-03 20:11:00,
2013-02-03 15:27:00,61.9,34.7,29.75,West,270,11.4,-999.0,36,-99.99,,,0.00,Acu-Link.com,2013-02-03 20:27:00,
2013-02-03 15:42:00,61.3,34.8,29.74,West,270,6.3,-999.0,37,-99.99,,,0.00,Acu-Link.com,2013-02-03 20:42:00,
2013-02-03 15:57:00,62.2,34.2,29.75,West,270,10.4,-999.0,35,-99.99,,,0.00,Acu-Link.com,2013-02-03 20:57:00,
2013-02-03 16:13:00,62.1,33.4,29.74,WSW,247,6.8,-999.0,34,-99.99,,,0.00,Acu-Link.com,2013-02-03 21:13:00,
2013-02-03 16:28:00,62.6,34.6,29.74,West,270,15.5,-999.0,35,-99.99,,,0.00,Acu-Link.com,2013-02-03 21:28:00,
2013-02-03 16:43:00,61.5,33.6,29.74,SSW,202,7.3,-999.0,35,-99.99,,,0.00,Acu-Link.com,2013-02-03 21:43:00,
2013-02-03 16:58:00,61.2,33.3,29.74,WSW,247,10.4,-999.0,35,-99.99,,,0.00,Acu-Link.com,2013-02-03 21:58:00,
2013-02-03 17:14:00,60.6,34.2,29.74,West,270,10.4,-999.0,37,-99.99,,,0.00,Acu-Link.com,2013-02-03 22:14:00,
2013-02-03 17:29:00,59.2,33.6,29.75,NW,315,4.2,-999.0,38,-99.99,,,0.00,Acu-Link.com,2013-02-03 22:29:00,
2013-02-03 17:45:00,58.8,33.3,29.74,WSW,247,7.3,-999.0,38,-99.99,,,0.00,Acu-Link.com,2013-02-03 22:45:00,
2013-02-03 18:00:00,57.7,33.5,29.75,West,270,5.8,-999.0,40,-99.99,,,0.00,Acu-Link.com,2013-02-03 23:00:00,
2013-02-03 18:15:00,57.2,33.7,29.75,SW,225,5.8,-999.0,41,-99.99,,,0.00,Acu-Link.com,2013-02-03 23:15:00,
2013-02-03 18:31:00,56.5,33.7,29.76,West,270,4.7,-999.0,42,-99.99,,,0.00,Acu-Link.com,2013-02-03 23:31:00,
2013-02-03 18:46:00,55.0,33.5,29.76,South,180,0.0,-999.0,44,-99.99,,,0.00,Acu-Link.com,2013-02-03 23:46:00,
2013-02-03 19:01:00,53.4,34.2,29.77,North,0,0.0,-999.0,48,-99.99,,,0.00,Acu-Link.com,2013-02-04 00:01:00,
2013-02-03 19:16:00,51.3,35.2,29.77,SW,225,0.0,-999.0,54,-99.99,,,0.00,Acu-Link.com,2013-02-04 00:16:00,
2013-02-03 19:32:00,49.8,34.7,29.78,NNE,22,0.0,-999.0,56,-99.99,,,0.00,Acu-Link.com,2013-02-04 00:32:00,
2013-02-03 19:47:00,48.9,36.9,29.78,NW,315,0.0,-999.0,63,-99.99,,,0.00,Acu-Link.com,2013-02-04 00:47:00,
2013-02-03 20:02:00,48.4,37.2,29.79,West,270,0.0,-999.0,65,-99.99,,,0.00,Acu-Link.com,2013-02-04 01:02:00,
2013-02-03 20:18:00,48.0,37.6,29.80,SSW,202,0.0,-999.0,67,-99.99,,,0.00,Acu-Link.com,2013-02-04 01:18:00,
2013-02-03 20:33:00,48.6,37.0,29.80,SW,225,2.7,-999.0,64,-99.99,,,0.00,Acu-Link.com,2013-02-04 01:33:00,
2013-02-03 20:48:00,48.6,37.0,29.80,West,270,0.0,-999.0,64,-99.99,,,0.00,Acu-Link.com,2013-02-04 01:48:00,
2013-02-03 21:04:00,48.2,37.8,29.80,West,270,2.2,-999.0,67,-99.99,,,0.00,Acu-Link.com,2013-02-04 02:04:00,
2013-02-03 21:19:00,47.7,36.9,29.81,South,180,0.0,-999.0,66,-99.99,,,0.00,Acu-Link.com,2013-02-04 02:19:00,
2013-02-03 21:34:00,46.4,36.8,29.81,SW,225,0.0,-999.0,69,-99.99,,,0.00,Acu-Link.com,2013-02-04 02:34:00,
2013-02-03 21:49:00,45.3,37.9,29.81,SW,225,0.0,-999.0,75,-99.99,,,0.00,Acu-Link.com,2013-02-04 02:49:00,
2013-02-03 22:04:00,44.6,38.5,29.83,NNW,337,2.7,-999.0,79,-99.99,,,0.00,Acu-Link.com,2013-02-04 03:04:00,
2013-02-03 22:43:00,44.8,37.7,29.83,SSE,157,0.0,-999.0,76,-99.99,,,0.00,Acu-Link.com,2013-02-04 03:43:00,
2013-02-03 22:58:00,43.0,36.3,29.84,ESE,112,0.0,-999.0,77,-99.99,,,0.00,Acu-Link.com,2013-02-04 03:58:00,
2013-02-03 23:13:00,42.1,35.7,29.85,ESE,112,0.0,-999.0,78,-99.99,,,0.00,Acu-Link.com,2013-02-04 04:13:00,
2013-02-03 23:28:00,40.6,35.8,29.84,ESE,112,0.0,-999.0,83,-99.99,,,0.00,Acu-Link.com,2013-02-04 04:28:00,
2013-02-03 23:44:00,39.7,34.7,29.84,ESE,112,0.0,-999.0,82,-99.99,,,0.00,Acu-Link.com,2013-02-04 04:44:00,
2013-02-03 23:59:00,39.9,34.9,29.85,ESE,112,0.0,-999.0,82,-99.99,,,0.00,Acu-Link.com,2013-02-04 04:59:00,